createdAt,value
2018-12-14T00:02:18.555Z,1.90
2018-12-14T00:04:51.163Z,2.00
2018-12-14T00:07:24.026Z,2.00
2018-12-14T00:09:54.290Z,2.10
2018-12-14T00:12:24.344Z,2.10
2018-12-14T00:14:55.466Z,2.10
2018-12-14T00:17:25.605Z,2.10
2018-12-14T00:19:55.756Z,2.20
2018-12-14T00:22:25.873Z,2.20
2018-12-14T00:24:55.880Z,2.30
2018-12-14T00:27:26.287Z,2.20
2018-12-14T00:29:56.963Z,2.00
2018-12-14T00:32:27.123Z,2.10
2018-12-14T00:34:57.274Z,2.20
2018-12-14T00:37:27.472Z,2.20
2018-12-14T00:39:57.739Z,2.20
2018-12-14T00:42:27.920Z,2.20
2018-12-14T00:44:57.980Z,2.30
2018-12-14T00:47:28.890Z,2.30
2018-12-14T00:49:59.185Z,2.20
2018-12-14T00:52:29.187Z,2.20
2018-12-14T00:54:59.398Z,2.20
2018-12-14T00:57:29.555Z,2.10
2018-12-14T00:59:59.817Z,2.20
2018-12-14T01:02:29.995Z,2.10
2018-12-14T01:05:00.085Z,2.10
2018-12-14T01:07:30.148Z,2.20
2018-12-14T01:10:00.368Z,2.10
2018-12-14T01:12:30.833Z,2.10
2018-12-14T01:15:01.125Z,2.10
2018-12-14T01:17:31.089Z,2.00
2018-12-14T01:20:01.841Z,2.10
2018-12-14T01:22:32.038Z,2.10
2018-12-14T01:25:02.191Z,2.10
2018-12-14T01:27:32.454Z,2.20
2018-12-14T01:30:02.551Z,2.30
2018-12-14T01:32:32.559Z,2.20
2018-12-14T01:35:02.658Z,2.20
2018-12-14T01:37:32.835Z,2.20
2018-12-14T01:40:03.342Z,2.20
2018-12-14T01:42:33.855Z,2.20
2018-12-14T01:45:04.486Z,2.10
2018-12-14T01:47:34.529Z,2.10
2018-12-14T01:50:05.965Z,2.20
2018-12-14T01:52:36.623Z,2.10
2018-12-14T01:55:06.951Z,2.00
2018-12-14T01:57:38.561Z,2.00
2018-12-14T02:00:09.604Z,2.00
2018-12-14T02:02:41.415Z,2.00
2018-12-14T02:05:11.968Z,2.10
2018-12-14T02:07:42.054Z,1.90
2018-12-14T02:10:12.428Z,2.00
2018-12-14T02:12:42.271Z,1.90
2018-12-14T02:15:12.430Z,1.90
2018-12-14T02:17:42.526Z,2.00
2018-12-14T02:20:13.225Z,2.10
2018-12-14T02:22:43.435Z,2.00
2018-12-14T02:25:13.687Z,2.00
2018-12-14T02:27:43.739Z,1.80
2018-12-14T02:30:25.261Z,1.80
2018-12-14T02:32:56.489Z,1.90
2018-12-14T02:35:26.623Z,2.10
2018-12-14T02:37:57.017Z,2.20
2018-12-14T02:40:27.585Z,2.10
2018-12-14T02:42:57.670Z,1.90
2018-12-14T02:45:27.974Z,2.10
2018-12-14T02:47:57.978Z,2.20
2018-12-14T02:50:28.063Z,2.10
2018-12-14T02:52:58.220Z,2.10
2018-12-14T02:55:28.403Z,2.10
2018-12-14T02:57:58.468Z,2.10
2018-12-14T03:00:28.642Z,2.20
2018-12-14T03:02:58.963Z,2.20
2018-12-14T03:05:29.271Z,2.20
2018-12-14T03:08:00.210Z,2.30
2018-12-14T03:10:30.205Z,2.20
2018-12-14T03:13:01.373Z,2.20
2018-12-14T03:15:31.650Z,2.20
2018-12-14T03:18:01.823Z,2.10
2018-12-14T03:20:31.800Z,2.00
2018-12-14T03:23:02.014Z,2.00
2018-12-14T03:25:32.741Z,2.00
2018-12-14T03:28:03.210Z,2.20
2018-12-14T03:30:33.384Z,2.30
2018-12-14T03:33:03.811Z,2.30
2018-12-14T03:36:36.965Z,2.30
2018-12-14T03:39:07.477Z,2.30
2018-12-14T03:41:38.338Z,2.30
2018-12-14T03:44:08.468Z,2.30
2018-12-14T03:46:38.419Z,2.50
2018-12-14T03:49:08.403Z,2.50
2018-12-14T03:51:38.533Z,2.50
2018-12-14T03:54:08.596Z,2.40
2018-12-14T03:56:38.619Z,2.50
2018-12-14T03:59:08.903Z,2.50
2018-12-14T04:01:38.872Z,2.40
2018-12-14T04:04:08.688Z,2.40
2018-12-14T04:06:38.757Z,2.20
2018-12-14T04:09:08.984Z,2.20
2018-12-14T04:11:38.956Z,2.30
2018-12-14T04:14:08.909Z,2.30
2018-12-14T04:16:39.258Z,2.40
2018-12-14T04:19:09.784Z,2.50
2018-12-14T04:21:39.972Z,2.50
2018-12-14T04:24:10.221Z,2.50
2018-12-14T04:26:41.282Z,2.50
2018-12-14T04:29:12.823Z,2.40
2018-12-14T04:31:42.808Z,2.30
2018-12-14T04:34:13.183Z,2.20
2018-12-14T04:36:43.343Z,2.20
2018-12-14T04:39:15.485Z,2.20
2018-12-14T04:41:45.563Z,2.30
2018-12-14T04:44:15.679Z,2.20
2018-12-14T04:46:46.173Z,2.20
2018-12-14T04:49:16.441Z,2.30
2018-12-14T04:51:46.606Z,2.20
2018-12-14T04:54:17.075Z,2.20
2018-12-14T04:56:47.070Z,2.20
2018-12-14T04:59:17.670Z,2.20
2018-12-14T05:01:47.920Z,2.20
2018-12-14T05:04:18.307Z,2.20
2018-12-14T05:06:48.774Z,2.20
2018-12-14T05:09:18.941Z,2.20
2018-12-14T05:11:49.133Z,2.00
2018-12-14T05:14:19.308Z,2.00
2018-12-14T05:16:49.697Z,1.90
2018-12-14T05:19:20.003Z,2.00
2018-12-14T05:21:50.917Z,2.00
2018-12-14T05:24:21.675Z,2.00
2018-12-14T05:26:51.720Z,2.10
2018-12-14T05:29:21.841Z,2.10
2018-12-14T05:31:51.867Z,2.00
2018-12-14T05:34:22.060Z,2.00
2018-12-14T05:36:52.312Z,2.00
2018-12-14T05:39:23.019Z,2.00
2018-12-14T05:41:53.138Z,2.00
2018-12-14T05:44:23.411Z,1.90
2018-12-14T05:46:53.640Z,2.10
2018-12-14T05:49:24.002Z,2.20
2018-12-14T05:51:55.335Z,2.20
2018-12-14T05:54:26.087Z,2.20
2018-12-14T05:56:56.639Z,2.20
2018-12-14T05:59:31.979Z,2.20
2018-12-14T06:02:02.199Z,2.10
2018-12-14T06:04:32.302Z,2.10
2018-12-14T06:07:02.883Z,2.00
2018-12-14T06:09:33.297Z,2.00
2018-12-14T06:12:03.565Z,2.10
2018-12-14T06:14:34.013Z,2.00
2018-12-14T06:17:04.522Z,2.10
2018-12-14T06:19:34.595Z,2.20
2018-12-14T06:22:04.890Z,2.00
2018-12-14T06:24:34.834Z,2.10
2018-12-14T06:27:04.981Z,2.00
2018-12-14T06:29:35.349Z,2.00
2018-12-14T06:32:05.188Z,2.20
2018-12-14T06:34:35.159Z,2.20
2018-12-14T06:37:05.255Z,2.00
2018-12-14T06:39:35.800Z,2.00
2018-12-14T06:42:06.061Z,2.00
2018-12-14T06:44:37.187Z,1.90
2018-12-14T06:47:07.268Z,1.90
2018-12-14T06:49:46.999Z,1.90
2018-12-14T06:52:17.533Z,1.90
2018-12-14T06:54:48.063Z,1.90
2018-12-14T06:57:18.186Z,2.00
2018-12-14T06:59:53.538Z,1.90
2018-12-14T07:02:25.050Z,1.80
2018-12-14T07:04:55.200Z,1.80
2018-12-14T07:07:25.415Z,1.70
2018-12-14T07:09:55.794Z,1.80
2018-12-14T07:12:25.954Z,2.00
2018-12-14T07:14:56.144Z,2.20
2018-12-14T07:17:26.126Z,2.30
2018-12-14T07:19:57.025Z,2.40
2018-12-14T07:22:26.967Z,2.40
2018-12-14T07:24:57.970Z,2.20
2018-12-14T07:27:29.383Z,2.30
2018-12-14T07:29:59.335Z,2.20
2018-12-14T07:32:30.439Z,2.30
2018-12-14T07:35:00.707Z,2.20
2018-12-14T07:37:30.676Z,2.20
2018-12-14T07:40:01.126Z,2.30
2018-12-14T07:42:32.190Z,2.30
2018-12-14T07:45:02.542Z,2.30
2018-12-14T07:47:32.780Z,2.40
2018-12-14T07:50:03.128Z,2.50
2018-12-14T07:52:33.917Z,2.40
2018-12-14T07:55:04.460Z,2.30
2018-12-14T07:57:35.017Z,2.30
2018-12-14T08:00:07.678Z,2.30
2018-12-14T08:02:38.113Z,2.30
2018-12-14T08:05:08.385Z,2.40
2018-12-14T08:07:38.214Z,2.40
2018-12-14T08:10:08.819Z,2.40
2018-12-14T08:12:38.802Z,2.30
2018-12-14T08:15:11.454Z,2.40
2018-12-14T08:17:41.380Z,2.40
2018-12-14T08:20:17.355Z,2.40
2018-12-14T08:22:47.858Z,2.50
2018-12-14T08:25:18.588Z,2.60
2018-12-14T08:27:49.428Z,2.50
2018-12-14T08:30:21.443Z,2.50
2018-12-14T08:32:51.357Z,2.50
2018-12-14T08:35:21.537Z,2.40
2018-12-14T08:37:51.721Z,2.20
2018-12-14T08:40:21.940Z,2.30
2018-12-14T08:42:52.137Z,2.30
2018-12-14T08:45:22.296Z,2.40
2018-12-14T08:47:52.306Z,2.50
2018-12-14T08:50:22.443Z,2.50
2018-12-14T08:52:52.638Z,2.40
2018-12-14T08:55:22.728Z,2.20
2018-12-14T08:57:52.784Z,2.30
2018-12-14T09:00:23.024Z,2.40
2018-12-14T09:02:53.119Z,2.40
2018-12-14T09:05:23.158Z,2.50
2018-12-14T09:07:53.433Z,2.70
2018-12-14T09:10:23.609Z,2.60
2018-12-14T09:12:53.516Z,2.50
2018-12-14T09:15:23.804Z,2.60
2018-12-14T09:17:54.045Z,2.60
2018-12-14T09:20:24.251Z,2.60
2018-12-14T09:22:54.672Z,2.60
2018-12-14T09:25:24.820Z,2.60
2018-12-14T09:27:56.067Z,2.70
2018-12-14T09:30:26.072Z,2.70
2018-12-14T09:32:56.176Z,2.80
2018-12-14T09:35:26.638Z,2.80
2018-12-14T09:37:56.889Z,2.70
2018-12-14T09:40:26.769Z,2.70
2018-12-14T09:42:56.869Z,2.80
2018-12-14T09:45:27.255Z,2.80
2018-12-14T09:47:57.305Z,2.80
2018-12-14T09:50:29.080Z,2.80
2018-12-14T09:52:59.467Z,2.80
2018-12-14T09:55:29.773Z,2.70
2018-12-14T09:58:00.002Z,2.70
2018-12-14T10:00:29.904Z,2.60
2018-12-14T10:03:00.846Z,2.70
2018-12-14T10:05:34.415Z,2.70
2018-12-14T10:08:04.507Z,2.70
2018-12-14T10:10:35.072Z,2.70
2018-12-14T10:13:05.356Z,2.70
2018-12-14T10:15:36.146Z,2.60
2018-12-14T10:18:06.280Z,2.70
2018-12-14T10:20:36.267Z,2.90
2018-12-14T10:23:06.071Z,2.90
2018-12-14T10:25:37.285Z,2.80
2018-12-14T10:28:07.145Z,2.70
2018-12-14T10:30:37.143Z,2.80
2018-12-14T10:33:07.181Z,2.80
2018-12-14T10:35:37.312Z,2.90
2018-12-14T10:38:07.809Z,3.00
2018-12-14T10:40:38.840Z,3.10
2018-12-14T10:43:08.959Z,3.00
2018-12-14T10:45:39.222Z,3.00
2018-12-14T10:48:09.535Z,2.90
2018-12-14T10:50:54.475Z,2.80
2018-12-14T10:53:24.622Z,2.80
2018-12-14T10:55:54.942Z,2.90
2018-12-14T10:58:30.503Z,3.00
2018-12-14T11:01:05.830Z,3.00
2018-12-14T11:03:36.334Z,3.10
2018-12-14T11:06:06.562Z,3.10
2018-12-14T11:08:37.914Z,3.20
2018-12-14T11:11:08.098Z,3.20
2018-12-14T11:13:38.430Z,3.00
2018-12-14T11:16:08.510Z,2.90
2018-12-14T11:18:38.630Z,2.80
2018-12-14T11:21:08.483Z,2.80
2018-12-14T11:23:38.627Z,2.90
2018-12-14T11:26:08.859Z,3.00
2018-12-14T11:28:38.998Z,3.00
2018-12-14T11:31:08.983Z,3.10
2018-12-14T11:33:38.951Z,3.00
2018-12-14T11:36:08.953Z,3.00
2018-12-14T11:38:39.161Z,3.10
2018-12-14T11:41:09.092Z,3.10
2018-12-14T11:43:39.185Z,3.20
2018-12-14T11:46:09.322Z,3.20
2018-12-14T11:48:39.972Z,3.20
2018-12-14T11:51:12.484Z,3.10
2018-12-14T11:53:42.745Z,2.90
2018-12-14T11:56:13.145Z,2.80
2018-12-14T11:58:43.199Z,2.80
2018-12-14T12:01:13.728Z,2.70
2018-12-14T12:03:44.075Z,2.60
2018-12-14T12:06:14.805Z,2.70
2018-12-14T12:08:44.760Z,2.70
2018-12-14T12:11:14.806Z,2.80
2018-12-14T12:13:44.742Z,2.80
2018-12-14T12:16:14.838Z,2.90
2018-12-14T12:18:45.072Z,2.90
2018-12-14T12:21:16.602Z,2.70
2018-12-14T12:23:46.858Z,2.80
2018-12-14T12:26:17.031Z,2.80
2018-12-14T12:28:52.496Z,2.90
2018-12-14T12:31:22.622Z,3.00
2018-12-14T12:33:52.976Z,2.90
2018-12-14T12:36:23.340Z,2.90
2018-12-14T12:38:53.497Z,2.90
2018-12-14T12:41:23.808Z,2.90
2018-12-14T12:43:54.518Z,2.90
2018-12-14T12:46:24.777Z,2.80
2018-12-14T12:48:55.508Z,2.70
2018-12-14T12:51:25.903Z,2.80
2018-12-14T12:53:56.543Z,2.80
2018-12-14T12:56:27.115Z,2.70
2018-12-14T12:58:57.487Z,2.70
2018-12-14T13:01:28.622Z,2.60
2018-12-14T13:04:00.374Z,2.70
2018-12-14T13:06:31.639Z,2.70
2018-12-14T13:09:02.215Z,2.70
2018-12-14T13:11:32.909Z,2.70
2018-12-14T13:14:03.609Z,2.70
2018-12-14T13:16:34.679Z,2.80
2018-12-14T13:19:04.908Z,2.70
2018-12-14T13:21:35.104Z,2.50
2018-12-14T13:24:05.129Z,2.60
2018-12-14T13:26:35.309Z,2.60
2018-12-14T13:29:05.657Z,2.60
2018-12-14T13:31:36.363Z,2.60
2018-12-14T13:34:06.568Z,2.70
2018-12-14T13:36:36.967Z,2.50
2018-12-14T13:39:07.887Z,2.50
2018-12-14T13:41:39.721Z,2.70
2018-12-14T13:44:10.107Z,2.80
2018-12-14T13:46:40.506Z,2.80
2018-12-14T13:49:11.038Z,2.90
2018-12-14T13:51:41.932Z,3.00
2018-12-14T13:54:12.708Z,2.90
2018-12-14T13:56:42.768Z,2.80
2018-12-14T13:59:13.945Z,2.70
2018-12-14T14:01:45.079Z,2.70
2018-12-14T14:04:15.295Z,2.80
2018-12-14T14:06:45.534Z,2.70
2018-12-14T14:09:15.804Z,2.80
2018-12-14T14:11:46.135Z,2.90
2018-12-14T14:14:16.301Z,2.80
2018-12-14T14:16:48.464Z,2.90
2018-12-14T14:19:18.871Z,2.80
2018-12-14T14:21:49.543Z,2.80
2018-12-14T14:24:19.677Z,2.80
2018-12-14T14:26:49.900Z,2.80
2018-12-14T14:29:21.328Z,2.90
2018-12-14T14:31:51.592Z,3.10
2018-12-14T14:34:22.027Z,3.20
2018-12-14T14:36:52.272Z,3.20
2018-12-14T14:39:22.704Z,3.30
2018-12-14T14:41:52.715Z,3.40
2018-12-14T14:44:22.669Z,3.40
2018-12-14T14:46:52.924Z,3.40
2018-12-14T14:49:22.919Z,3.50
2018-12-14T14:51:53.402Z,3.40
2018-12-14T14:54:23.633Z,3.40
2018-12-14T14:56:53.696Z,3.50
2018-12-14T14:59:24.243Z,3.50
2018-12-14T15:01:54.602Z,3.50
2018-12-14T15:04:24.568Z,3.50
2018-12-14T15:06:55.158Z,3.40
2018-12-14T15:09:25.579Z,3.40
2018-12-14T15:11:57.150Z,3.40
2018-12-14T15:14:27.227Z,3.40
2018-12-14T15:16:57.343Z,3.40
2018-12-14T15:19:27.697Z,3.40
2018-12-14T15:22:04.377Z,3.40
2018-12-14T15:24:30.201Z,3.30
2018-12-14T15:27:00.487Z,3.20
2018-12-14T15:29:32.088Z,3.40
2018-12-14T15:32:02.667Z,3.40
2018-12-14T15:34:47.849Z,3.50
2018-12-14T15:37:17.754Z,3.50
2018-12-14T15:39:48.503Z,3.40
2018-12-14T15:42:18.510Z,3.50
2018-12-14T15:44:48.659Z,3.50
2018-12-14T15:47:18.863Z,3.50
2018-12-14T15:49:49.701Z,3.40
2018-12-14T15:52:20.863Z,3.40
2018-12-14T15:54:51.088Z,3.40
2018-12-14T15:57:22.129Z,3.40
2018-12-14T15:59:52.419Z,3.50
2018-12-14T16:02:22.723Z,3.40
2018-12-14T16:04:53.092Z,3.50
2018-12-14T16:07:23.703Z,3.40
2018-12-14T16:09:54.047Z,3.40
2018-12-14T16:12:24.253Z,3.50
2018-12-14T16:14:55.921Z,3.40
2018-12-14T16:17:26.285Z,3.40
2018-12-14T16:19:56.762Z,3.30
2018-12-14T16:22:27.268Z,3.30
2018-12-14T16:24:57.434Z,3.40
2018-12-14T16:27:27.710Z,3.40
2018-12-14T16:29:58.076Z,3.40
2018-12-14T16:32:28.445Z,3.50
2018-12-14T16:34:58.541Z,3.40
2018-12-14T16:37:28.851Z,3.50
2018-12-14T16:39:59.285Z,3.40
2018-12-14T16:42:29.409Z,3.50
2018-12-14T16:44:59.480Z,3.40
2018-12-14T16:47:29.775Z,3.40
2018-12-14T16:49:59.674Z,3.50
2018-12-14T16:52:30.018Z,3.40
2018-12-14T16:55:00.453Z,3.50
2018-12-14T16:57:31.380Z,3.30
2018-12-14T17:00:02.090Z,3.30
2018-12-14T17:02:34.366Z,3.40
2018-12-14T17:05:05.453Z,3.30
2018-12-14T17:07:35.946Z,3.40
2018-12-14T17:10:07.000Z,3.40
2018-12-14T17:12:37.611Z,3.40
2018-12-14T17:15:08.208Z,3.30
2018-12-14T17:17:38.371Z,3.30
2018-12-14T17:20:09.721Z,3.40
2018-12-14T17:22:39.942Z,3.40
2018-12-14T17:25:10.260Z,3.30
2018-12-14T17:27:42.390Z,3.40
2018-12-14T17:30:12.752Z,3.30
2018-12-14T17:32:43.436Z,3.40
2018-12-14T17:35:14.565Z,3.30
2018-12-14T17:37:44.811Z,3.20
2018-12-14T17:40:16.179Z,3.10
2018-12-14T17:42:48.665Z,3.20
2018-12-14T17:45:18.671Z,3.30
2018-12-14T17:47:49.060Z,3.20
2018-12-14T17:50:19.744Z,3.10
2018-12-14T17:52:49.836Z,3.10
2018-12-14T17:55:20.320Z,3.10
2018-12-14T17:57:51.056Z,3.10
2018-12-14T18:00:21.629Z,3.10
2018-12-14T18:02:51.904Z,3.10
2018-12-14T18:05:22.101Z,3.20
2018-12-14T18:07:52.437Z,3.30
2018-12-14T18:10:22.751Z,3.20
2018-12-14T18:12:53.777Z,3.20
2018-12-14T18:15:24.211Z,3.30
2018-12-14T18:17:54.421Z,3.30
2018-12-14T18:20:24.773Z,3.30
2018-12-14T18:22:56.812Z,3.30
2018-12-14T18:25:27.448Z,3.20
2018-12-14T18:27:57.674Z,3.20
2018-12-14T18:30:27.623Z,3.20
2018-12-14T18:32:57.853Z,3.10
2018-12-14T18:35:28.236Z,3.00
2018-12-14T18:37:58.402Z,3.20
2018-12-14T18:40:28.765Z,3.20
2018-12-14T18:42:59.003Z,3.20
2018-12-14T18:45:29.869Z,3.20
2018-12-14T18:48:00.137Z,3.20
2018-12-14T18:50:30.177Z,3.30
2018-12-14T18:53:00.426Z,3.20
2018-12-14T18:55:30.604Z,3.30
2018-12-14T18:58:00.583Z,3.20
2018-12-14T19:00:30.638Z,3.20
2018-12-14T19:03:01.279Z,3.30
2018-12-14T19:05:31.514Z,3.10
2018-12-14T19:08:01.658Z,3.20
2018-12-14T19:10:31.702Z,3.30
2018-12-14T19:13:01.968Z,3.20
2018-12-14T19:15:32.302Z,3.30
2018-12-14T19:18:02.798Z,3.30
2018-12-14T19:20:34.474Z,3.20
2018-12-14T19:23:04.641Z,3.30
2018-12-14T19:25:34.839Z,3.30
2018-12-14T19:28:05.251Z,3.30
2018-12-14T19:30:35.338Z,3.30
2018-12-14T19:33:05.415Z,3.30
2018-12-14T19:35:35.486Z,3.30
2018-12-14T19:38:05.714Z,3.30
2018-12-14T19:40:35.954Z,3.20
2018-12-14T19:43:06.117Z,3.20
2018-12-14T19:45:36.226Z,3.30
2018-12-14T19:48:06.546Z,3.40
2018-12-14T19:50:36.616Z,3.20
2018-12-14T19:53:07.527Z,3.30
2018-12-14T19:55:37.613Z,3.40
2018-12-14T19:58:08.028Z,3.20
2018-12-14T20:00:38.226Z,3.30
2018-12-14T20:03:08.317Z,3.30
2018-12-14T20:05:38.383Z,3.20
2018-12-14T20:08:08.883Z,3.30
2018-12-14T20:10:39.087Z,3.40
2018-12-14T20:13:09.201Z,3.40
2018-12-14T20:15:39.208Z,3.40
2018-12-14T20:18:09.255Z,3.40
2018-12-14T20:20:39.479Z,3.20
2018-12-14T20:23:09.724Z,3.30
2018-12-14T20:25:40.426Z,3.30
2018-12-14T20:28:10.670Z,3.40
2018-12-14T20:30:41.060Z,3.20
2018-12-14T20:33:11.558Z,3.40
2018-12-14T20:35:41.876Z,3.40
2018-12-14T20:38:12.535Z,3.30
2018-12-14T20:40:42.744Z,3.20
2018-12-14T20:43:13.193Z,3.10
2018-12-14T20:45:43.424Z,3.20
2018-12-14T20:48:14.336Z,3.30
2018-12-14T20:50:44.776Z,3.30
2018-12-14T20:53:15.129Z,3.30
2018-12-14T20:55:45.259Z,3.40
2018-12-14T20:58:16.037Z,3.20
2018-12-14T21:00:46.557Z,3.40
2018-12-14T21:03:16.845Z,3.40
2018-12-14T21:05:47.156Z,3.20
2018-12-14T21:08:17.961Z,3.30
2018-12-14T21:10:48.494Z,3.40
2018-12-14T21:13:18.500Z,3.40
2018-12-14T21:15:48.752Z,3.40
2018-12-14T21:18:18.971Z,3.40
2018-12-14T21:20:49.466Z,3.50
2018-12-14T21:23:19.795Z,3.50
2018-12-14T21:25:50.395Z,3.40
2018-12-14T21:28:21.792Z,3.50
2018-12-14T21:30:52.293Z,3.50
2018-12-14T21:33:22.428Z,3.50
2018-12-14T21:35:52.749Z,3.50
2018-12-14T21:38:22.879Z,3.50
2018-12-14T21:40:53.104Z,3.40
2018-12-14T21:43:23.255Z,3.50
2018-12-14T21:45:54.575Z,3.50
2018-12-14T21:48:26.264Z,3.50
2018-12-14T21:50:56.261Z,3.50
2018-12-14T21:53:26.839Z,3.50
2018-12-14T21:55:58.178Z,3.50
2018-12-14T21:58:28.513Z,3.40
2018-12-14T22:00:59.126Z,3.40
2018-12-14T22:03:29.496Z,3.40
2018-12-14T22:05:59.623Z,3.40
2018-12-14T22:08:29.852Z,3.40
2018-12-14T22:11:00.231Z,3.50
2018-12-14T22:13:30.141Z,3.40
2018-12-14T22:16:00.395Z,3.40
2018-12-14T22:18:31.724Z,3.50
2018-12-14T22:21:01.943Z,3.50
2018-12-14T22:23:32.127Z,3.30
2018-12-14T22:26:02.452Z,3.30
2018-12-14T22:28:33.254Z,3.30
2018-12-14T22:31:04.466Z,3.40
2018-12-14T22:33:34.488Z,3.40
2018-12-14T22:36:05.068Z,3.30
2018-12-14T22:38:36.820Z,3.40
2018-12-14T22:41:07.143Z,3.30
2018-12-14T22:43:38.022Z,3.40
2018-12-14T22:46:08.851Z,3.50
2018-12-14T22:48:38.795Z,3.50
2018-12-14T22:51:10.483Z,3.40
2018-12-14T22:53:41.133Z,3.40
2018-12-14T22:56:11.098Z,3.40
2018-12-14T22:58:41.663Z,3.50
2018-12-14T23:01:12.215Z,3.50
2018-12-14T23:03:42.219Z,3.50
2018-12-14T23:06:12.682Z,3.50
2018-12-14T23:08:43.398Z,3.60
2018-12-14T23:11:13.942Z,3.50
2018-12-14T23:13:44.308Z,3.50
2018-12-14T23:16:14.468Z,3.60
2018-12-14T23:18:44.624Z,3.50
2018-12-14T23:21:14.907Z,3.60
2018-12-14T23:23:45.144Z,3.50
2018-12-14T23:26:15.510Z,3.50
2018-12-14T23:28:45.502Z,3.50
2018-12-14T23:31:15.441Z,3.50
2018-12-14T23:33:45.593Z,3.60
2018-12-14T23:36:15.577Z,3.50
2018-12-14T23:38:45.837Z,3.50
2018-12-14T23:41:16.287Z,3.50
2018-12-14T23:43:46.373Z,3.50
2018-12-14T23:46:16.447Z,3.60
2018-12-14T23:48:46.942Z,3.50
2018-12-14T23:51:17.299Z,3.50
2018-12-14T23:53:47.731Z,3.40
2018-12-14T23:56:17.712Z,3.40
2018-12-14T23:58:48.222Z,3.40
